Time;durP1;ratioP1;P1;durP2;ratioP2;P2;SDS_P1;SDS_P2;PMS_P1;PMS_P2;Temp;Humidity;BMP_temperature;BMP_pressure;BME280_temperature;BME280_humidity;BME280_pressure;Samples;Min_cycle;Max_cycle;Signal;HPM_P1;HPM_P2
2022/09/16 00:00:13;;;;;;;968.25;903.97;;;;;;;15.33;62.30;100033.81;686717;28;44206;-64
2022/09/16 00:00:34;;;;;;;969.97;905.58;;;;;;;15.32;62.44;100040.31;685799;28;69450;-64
2022/09/16 00:00:55;;;;;;;970.63;906.17;;;;;;;15.32;62.63;100035.69;687276;28;23478;-64
2022/09/16 00:01:19;;;;;;;935.42;872.25;;;;;;;15.32;62.42;100032.16;687318;28;22369;-64
2022/09/16 00:01:40;;;;;;;945.22;881.72;;;;;;;15.33;62.51;100033.81;685143;28;92253;-63
2022/09/16 00:02:01;;;;;;;969.35;905.03;;;;;;;15.34;62.42;100040.09;686584;28;22170;-63
2022/09/16 00:02:22;;;;;;;949.40;885.70;;;;;;;15.34;62.23;100035.47;686636;28;44366;-64
2022/09/16 00:02:44;;;;;;;947.83;884.03;;;;;;;15.33;62.22;100033.81;687282;28;23861;-64
2022/09/16 00:03:06;;;;;;;961.50;897.35;;;;;;;15.34;62.24;100031.94;687471;28;23452;-64
2022/09/16 00:03:27;;;;;;;973.33;908.78;;;;;;;15.34;62.32;100038.19;687759;28;11722;-64
2022/09/16 00:03:53;;;;;;;972.03;907.45;;;;;;;15.32;62.17;100027.53;686646;28;46317;-64
2022/09/16 00:04:16;;;;;;;966.47;902.22;;;;;;;15.35;62.07;100042.59;683595;28;136532;-64
2022/09/16 00:04:37;;;;;;;967.85;903.53;;;;;;;15.35;62.54;100041.75;686600;28;46236;-64
2022/09/16 00:04:59;;;;;;;970.15;905.72;;;;;;;15.35;62.24;100037.13;687465;28;21516;-64
2022/09/16 00:05:20;;;;;;;971.88;907.38;;;;;;;15.35;62.14;100037.13;687390;28;45227;-64
2022/09/16 00:05:42;;;;;;;973.95;909.35;;;;;;;15.35;62.10;100044.47;689305;28;44357;-64
2022/09/16 00:06:03;;;;;;;973.30;908.70;;;;;;;15.35;62.12;100036.31;689354;28;46331;-64
2022/09/16 00:06:28;;;;;;;972.65;908.05;;;;;;;15.34;62.28;100035.47;689788;28;22399;-64
2022/09/16 00:06:49;;;;;;;971.85;907.20;;;;;;;15.34;62.03;100037.38;686708;28;90758;-64
2022/09/16 00:07:10;;;;;;;966.37;901.77;;;;;;;15.33;62.04;100033.81;689582;28;21292;-64
2022/09/16 00:07:31;;;;;;;935.85;872.30;;;;;;;15.33;62.06;100041.97;689237;28;44406;-64
2022/09/16 00:07:52;;;;;;;949.92;886.03;;;;;;;15.32;61.92;100030.25;690073;28;21522;-64
2022/09/16 00:08:14;;;;;;;962.88;898.70;;;;;;;15.30;61.85;100037.00;689429;28;21272;-64
2022/09/16 00:08:39;;;;;;;951.92;888.03;;;;;;;15.32;61.92;100034.88;689229;28;45037;-64
2022/09/16 00:09:00;;;;;;;965.75;901.50;;;;;;;15.32;62.06;100043.03;686901;28;115055;-64
2022/09/16 00:09:22;;;;;;;972.28;907.83;;;;;;;15.30;62.16;100039.72;689281;28;45302;-64
2022/09/16 00:09:43;;;;;;;961.63;897.42;;;;;;;15.30;62.09;100035.09;690091;28;21540;-64
2022/09/16 00:10:05;;;;;;;944.13;880.43;;;;;;;15.30;61.94;100032.38;690042;28;22455;-64
2022/09/16 00:10:27;;;;;;;931.90;868.65;;;;;;;15.31;62.06;100036.78;688538;28;69361;-64
2022/09/16 00:10:49;;;;;;;964.38;900.15;;;;;;;15.31;62.01;100033.19;686512;28;46441;-64
2022/09/16 00:11:10;;;;;;;958.65;894.55;;;;;;;15.31;62.03;100041.34;686606;28;46719;-64
2022/09/16 00:11:33;;;;;;;963.03;898.85;;;;;;;15.32;61.69;100040.31;687384;28;22427;-64
2022/09/16 00:11:55;;;;;;;972.22;907.72;;;;;;;15.32;62.13;100032.16;684997;28;68406;-64
2022/09/16 00:12:16;;;;;;;958.10;894.03;;;;;;;15.31;61.94;100036.78;686572;28;45310;-64
2022/09/16 00:12:38;;;;;;;960.42;896.38;;;;;;;15.32;61.84;100043.03;688005;28;4685;-64
2022/09/16 00:12:59;;;;;;;974.63;909.92;;;;;;;15.30;62.05;100037.00;687188;28;23475;-64
2022/09/16 00:13:20;;;;;;;973.67;909.13;;;;;;;15.29;61.60;100035.31;686581;28;44391;-64
2022/09/16 00:13:42;;;;;;;969.00;904.65;;;;;;;15.29;62.01;100038.03;687295;28;21517;-64
2022/09/16 00:14:04;;;;;;;968.58;904.17;;;;;;;15.29;61.71;100040.75;686645;28;44381;-64
2022/09/16 00:14:25;;;;;;;967.15;902.83;;;;;;;15.28;61.75;100041.81;687206;28;22510;-64
2022/09/16 00:14:46;;;;;;;968.22;903.85;;;;;;;15.28;62.09;100033.66;686665;28;46306;-64
2022/09/16 00:15:08;;;;;;;966.85;902.65;;;;;;;15.28;62.17;100034.50;687221;28;22448;-64
2022/09/16 00:15:32;;;;;;;966.50;902.30;;;;;;;15.28;61.87;100034.50;688154;28;925;-64
2022/09/16 00:15:53;;;;;;;956.17;892.38;;;;;;;15.28;62.08;100039.09;685693;28;67561;-64
2022/09/16 00:16:17;;;;;;;962.83;898.72;;;;;;;15.26;62.09;100039.31;687339;28;22414;-64
2022/09/16 00:16:38;;;;;;;959.95;895.88;;;;;;;15.26;62.02;100036.59;685819;28;92351;-64
2022/09/16 00:17:00;;;;;;;957.05;892.80;;;;;;;15.28;62.13;100044.53;688760;28;23421;-65
2022/09/16 00:17:22;;;;;;;968.90;904.10;;;;;;;15.28;62.05;100041.81;690598;28;864;-64
2022/09/16 00:17:43;;;;;;;959.63;895.53;;;;;;;15.27;61.66;100037.44;689307;28;46413;-64
2022/09/16 00:18:04;;;;;;;959.30;895.28;;;;;;;15.27;61.85;100040.16;690088;28;23419;-64
2022/09/16 00:18:25;;;;;;;933.13;869.90;;;;;;;15.26;62.09;100036.59;690775;28;1980;-64
2022/09/16 00:18:47;;;;;;;926.28;863.22;;;;;;;15.27;61.94;100037.44;690065;28;22402;-64
2022/09/16 00:19:08;;;;;;;962.97;898.78;;;;;;;15.26;62.01;100036.59;689318;28;45242;-64
2022/09/16 00:19:30;;;;;;;965.65;901.25;;;;;;;15.26;61.89;100042.03;689966;28;22249;-64
2022/09/16 00:19:51;;;;;;;964.50;900.20;;;;;;;15.26;61.75;100041.22;688651;28;44342;-64
2022/09/16 00:20:12;;;;;;;956.83;892.83;;;;;;;15.26;62.09;100042.03;689956;28;21364;-64
2022/09/16 00:20:35;;;;;;;958.75;894.65;;;;;;;15.27;61.96;100040.16;689012;28;45270;-64
2022/09/16 00:20:56;;;;;;;963.28;899.08;;;;;;;15.27;61.81;100040.16;689123;28;44365;-64
2022/09/16 00:21:17;;;;;;;956.65;892.60;;;;;;;15.25;61.96;100036.81;689492;28;24230;-64
2022/09/16 00:21:38;;;;;;;965.47;901.03;;;;;;;15.24;61.93;100037.88;689820;28;22388;-64
2022/09/16 00:21:59;;;;;;;940.45;876.85;;;;;;;15.23;61.93;100036.22;689241;28;21361;-64
2022/09/16 00:22:21;;;;;;;940.25;876.75;;;;;;;15.22;61.84;100038.13;690098;28;21532;-64
2022/09/16 00:22:42;;;;;;;958.58;894.55;;;;;;;15.22;61.80;100032.69;689272;28;46287;-64
2022/09/16 00:23:03;;;;;;;961.28;897.13;;;;;;;15.23;61.80;100039.75;689383;28;45219;-64
2022/09/16 00:23:25;;;;;;;965.50;901.15;;;;;;;15.23;62.07;100038.94;689913;28;22397;-64
2022/09/16 00:23:47;;;;;;;965.75;901.35;;;;;;;15.23;61.87;100045.19;690112;28;23383;-64
2022/09/16 00:24:12;;;;;;;968.75;904.35;;;;;;;15.23;62.17;100041.66;685835;28;44361;-64
2022/09/16 00:24:33;;;;;;;962.45;898.28;;;;;;;15.22;61.98;100039.97;684009;28;114899;-64
2022/09/16 00:24:54;;;;;;;969.97;905.47;;;;;;;15.22;62.09;100042.72;687112;28;23451;-64
2022/09/16 00:25:15;;;;;;;972.95;908.38;;;;;;;15.21;62.08;100047.31;687248;28;22386;-64
2022/09/16 00:25:37;;;;;;;949.55;885.67;;;;;;;15.20;62.20;100045.66;686305;28;46302;-64
2022/09/16 00:25:59;;;;;;;948.58;884.72;;;;;;;15.20;61.97;100039.38;688706;28;9963;-64
2022/09/16 00:26:20;;;;;;;971.63;907.17;;;;;;;15.19;62.04;100046.72;689911;28;22426;-64
2022/09/16 00:26:42;;;;;;;965.78;901.35;;;;;;;15.19;62.00;100049.44;689248;28;44374;-64
2022/09/16 00:27:04;;;;;;;972.95;907.97;;;;;;;15.16;62.14;100044.47;688055;28;23478;-64
2022/09/16 00:27:25;;;;;;;966.58;901.92;;;;;;;15.18;62.32;100044.22;688886;28;45227;-64
2022/09/16 00:27:46;;;;;;;964.25;899.95;;;;;;;15.17;62.21;100046.09;688978;28;45264;-64
2022/09/16 00:28:08;;;;;;;967.22;902.85;;;;;;;15.19;62.36;100048.59;689925;28;22639;-64
2022/09/16 00:28:30;;;;;;;972.45;907.90;;;;;;;15.18;62.33;100045.06;689794;28;21613;-64
2022/09/16 00:28:51;;;;;;;966.83;902.50;;;;;;;15.18;62.22;100046.94;689175;28;43959;-64
2022/09/16 00:29:12;;;;;;;930.33;867.20;;;;;;;15.17;62.15;100045.28;690067;28;21534;-64
2022/09/16 00:29:33;;;;;;;934.17;871.03;;;;;;;15.16;62.69;100046.31;689942;28;22385;-64
2022/09/16 00:29:54;;;;;;;962.03;897.90;;;;;;;15.14;62.02;100041.97;689146;28;46123;-64
2022/09/16 00:30:16;;;;;;;958.75;894.75;;;;;;;15.14;62.37;100041.13;690043;28;23626;-64
2022/09/16 00:30:39;;;;;;;956.15;892.22;;;;;;;15.14;62.07;100044.69;689241;28;46261;-64
2022/09/16 00:31:00;;;;;;;968.30;903.85;;;;;;;15.16;62.39;100046.31;689140;28;46301;-64
2022/09/16 00:31:22;;;;;;;958.80;894.67;;;;;;;15.17;62.35;100048.00;689254;28;45302;-64
2022/09/16 00:31:44;;;;;;;966.92;902.53;;;;;;;15.16;62.38;100038.16;689889;28;23440;-64
2022/09/16 00:32:05;;;;;;;967.90;903.35;;;;;;;15.14;62.22;100038.41;687566;28;45994;-64
2022/09/16 00:32:26;;;;;;;961.55;897.35;;;;;;;15.14;62.36;100041.97;687340;28;22409;-64
2022/09/16 00:32:47;;;;;;;967.95;903.55;;;;;;;15.17;62.45;100042.56;686587;28;45326;-64
2022/09/16 00:33:09;;;;;;;970.90;906.47;;;;;;;15.16;62.34;100044.47;687390;28;21540;-64
2022/09/16 00:33:32;;;;;;;967.53;903.13;;;;;;;15.18;62.22;100041.50;687338;28;22413;-64
2022/09/16 00:33:56;;;;;;;970.40;905.90;;;;;;;15.17;62.44;100046.09;685892;28;61756;-64
2022/09/16 00:34:18;;;;;;;962.25;897.95;;;;;;;15.15;62.42;100040.06;687417;28;22392;-64
2022/09/16 00:34:39;;;;;;;964.47;900.08;;;;;;;15.16;62.45;100040.88;688566;28;23420;-64
2022/09/16 00:35:01;;;;;;;961.25;897.08;;;;;;;15.17;62.43;100042.56;689288;28;46343;-64
2022/09/16 00:35:22;;;;;;;962.55;898.25;;;;;;;15.16;62.23;100038.16;689158;28;46370;-64
2022/09/16 00:35:43;;;;;;;965.28;900.97;;;;;;;15.13;62.41;100043.00;689973;28;22378;-64
2022/09/16 00:36:06;;;;;;;967.15;902.72;;;;;;;15.13;62.17;100034.03;690038;28;22382;-64
2022/09/16 00:36:29;;;;;;;966.38;901.85;;;;;;;15.12;62.24;100041.34;687735;28;70249;-64
2022/09/16 00:36:50;;;;;;;953.60;889.60;;;;;;;15.10;62.46;100043.44;688268;28;47406;-64
2022/09/16 00:37:11;;;;;;;964.97;900.25;;;;;;;15.12;62.51;100043.22;688777;28;44376;-64
2022/09/16 00:37:33;;;;;;;965.50;901.00;;;;;;;15.12;62.60;100045.94;690025;28;22386;-64
2022/09/16 00:37:54;;;;;;;964.05;899.72;;;;;;;15.11;62.58;100038.88;689101;28;46313;-64
2022/09/16 00:38:16;;;;;;;958.88;894.72;;;;;;;15.11;62.58;100047.84;689998;28;23430;-64
2022/09/16 00:38:37;;;;;;;963.72;899.33;;;;;;;15.10;62.59;100040.72;689194;28;46271;-64
2022/09/16 00:38:58;;;;;;;965.03;900.70;;;;;;;15.10;62.44;100040.72;689965;28;22401;-64
2022/09/16 00:39:19;;;;;;;963.03;898.72;;;;;;;15.11;62.73;100042.41;689553;28;22269;-64
2022/09/16 00:39:41;;;;;;;965.50;901.13;;;;;;;15.10;62.49;100040.72;689890;28;22406;-64
2022/09/16 00:40:04;;;;;;;962.47;898.17;;;;;;;15.11;62.58;100047.03;688508;28;45224;-63
2022/09/16 00:40:25;;;;;;;953.65;889.70;;;;;;;15.09;62.80;100044.53;688420;28;67446;-64
2022/09/16 00:40:48;;;;;;;966.55;902.08;;;;;;;15.09;62.74;100046.41;690110;28;22331;-64
2022/09/16 00:41:14;;;;;;;968.67;904.17;;;;;;;15.09;62.76;100040.94;688381;28;69353;-64
2022/09/16 00:41:36;;;;;;;964.20;899.90;;;;;;;15.09;62.65;100035.50;686088;28;138058;-64
2022/09/16 00:41:57;;;;;;;967.50;903.08;;;;;;;15.09;62.60;100047.25;688361;28;46902;-64
2022/09/16 00:42:19;;;;;;;951.67;887.85;;;;;;;15.09;62.54;100040.94;689924;28;23751;-64
2022/09/16 00:42:40;;;;;;;954.70;890.88;;;;;;;15.08;62.87;100042.03;688892;28;44379;-64
2022/09/16 00:43:01;;;;;;;955.47;891.67;;;;;;;15.08;62.53;100042.03;689619;28;22383;-64
2022/09/16 00:43:23;;;;;;;962.95;898.88;;;;;;;15.06;62.74;100044.13;687249;28;23535;-64
2022/09/16 00:43:47;;;;;;;963.42;899.22;;;;;;;15.07;62.83;100035.75;685912;28;44399;-64
2022/09/16 00:44:41;;;;;;;964.58;900.25;;;;;;;15.08;62.87;100042.84;684843;28;92104;-64
2022/09/16 00:45:06;;;;;;;965.78;901.38;;;;;;;15.08;62.58;100039.31;683053;28;138599;-63
2022/09/16 00:45:30;;;;;;;963.97;899.65;;;;;;;15.07;62.88;100037.63;684124;28;115056;-63
2022/09/16 00:45:58;;;;;;;971.83;907.13;;;;;;;15.06;62.51;100042.25;686684;28;38537;-63
2022/09/16 00:46:22;;;;;;;964.78;900.38;;;;;;;15.05;63.00;100046.03;683206;28;137873;-63
2022/09/16 00:46:46;;;;;;;962.35;898.03;;;;;;;15.07;62.78;100045.78;685797;28;67828;-63
2022/09/16 00:47:07;;;;;;;971.92;907.05;;;;;;;15.05;62.68;100043.28;682110;28;133498;-63
2022/09/16 00:47:31;;;;;;;967.05;902.47;;;;;;;15.04;62.94;100044.34;686392;28;45226;-64
2022/09/16 00:47:55;;;;;;;963.88;899.47;;;;;;;15.04;62.68;100048.97;684966;28;90683;-65
2022/09/16 00:48:19;;;;;;;964.45;899.95;;;;;;;15.03;63.01;100053.56;685517;28;69376;-65
2022/09/16 00:48:41;;;;;;;960.35;896.00;;;;;;;15.02;63.10;100054.63;684108;28;115102;-65
2022/09/16 00:49:05;;;;;;;953.03;889.08;;;;;;;15.02;63.10;100049.19;686519;28;46339;-65
2022/09/16 00:49:28;;;;;;;960.85;896.67;;;;;;;15.01;63.03;100050.22;685724;28;68300;-65
2022/09/16 00:49:50;;;;;;;956.58;892.58;;;;;;;15.00;62.95;100047.72;685699;28;67455;-65
2022/09/16 00:50:15;;;;;;;953.80;889.80;;;;;;;14.99;62.89;100055.06;686535;28;46406;-65
2022/09/16 00:50:39;;;;;;;954.22;890.30;;;;;;;14.99;63.01;100046.09;684168;28;115073;-64
2022/09/16 00:51:03;;;;;;;963.92;899.72;;;;;;;14.98;63.12;100052.56;684990;28;90278;-64
2022/09/16 00:51:24;;;;;;;964.72;900.47;;;;;;;14.98;62.90;100050.66;684724;28;92105;-64
2022/09/16 00:51:48;;;;;;;963.90;899.55;;;;;;;14.98;63.02;100055.28;687293;28;23408;-64
2022/09/16 00:52:09;;;;;;;966.50;902.10;;;;;;;14.94;63.29;100044.84;683418;28;111883;-64
2022/09/16 00:52:31;;;;;;;950.40;886.47;;;;;;;14.95;62.89;100060.13;688712;28;22403;-65
2022/09/16 00:52:54;;;;;;;952.40;888.40;;;;;;;14.95;63.23;100056.56;688271;28;69206;-64
2022/09/16 00:53:17;;;;;;;957.45;893.35;;;;;;;14.93;63.17;100051.34;689166;28;46327;-64
2022/09/16 00:53:40;;;;;;;958.92;894.83;;;;;;;14.93;62.95;100050.53;688423;28;67470;-65
2022/09/16 00:54:04;;;;;;;961.92;897.72;;;;;;;14.92;63.12;100052.41;688410;28;69629;-64
2022/09/16 00:54:26;;;;;;;954.78;890.75;;;;;;;14.93;63.23;100055.97;687535;28;92272;-64
2022/09/16 00:54:48;;;;;;;950.83;886.95;;;;;;;14.92;63.54;100059.72;689107;28;46902;-64
2022/09/16 00:55:12;;;;;;;957.72;893.65;;;;;;;14.92;63.36;100051.56;689259;28;45526;-64
2022/09/16 00:55:36;;;;;;;954.80;890.80;;;;;;;14.91;63.53;100055.34;686558;28;115096;-64
2022/09/16 00:56:01;;;;;;;958.38;894.28;;;;;;;14.91;63.13;100047.19;684897;28;90316;-64
2022/09/16 00:56:24;;;;;;;954.67;890.78;;;;;;;14.91;63.46;100049.91;684920;28;92139;-64
2022/09/16 00:56:48;;;;;;;960.75;896.67;;;;;;;14.91;63.31;100052.63;684755;28;93460;-64
2022/09/16 00:57:10;;;;;;;955.35;891.42;;;;;;;14.89;63.47;100052.00;683675;28;89388;-64
2022/09/16 00:57:32;;;;;;;955.30;891.40;;;;;;;14.89;63.25;100052.84;689019;28;46674;-65
2022/09/16 00:57:54;;;;;;;964.90;900.55;;;;;;;14.89;63.51;100052.00;688341;28;70251;-64
2022/09/16 00:58:19;;;;;;;965.78;901.45;;;;;;;14.88;63.46;100053.91;689219;28;44128;-64
2022/09/16 00:58:43;;;;;;;955.28;891.28;;;;;;;14.85;63.48;100051.63;688511;28;61790;-64
2022/09/16 00:59:09;;;;;;;954.15;890.15;;;;;;;14.88;63.73;100053.06;690720;28;1321;-64
2022/09/16 00:59:32;;;;;;;962.90;898.58;;;;;;;14.88;63.33;100058.50;686672;28;113497;-64
2022/09/16 00:59:54;;;;;;;963.78;899.40;;;;;;;14.86;63.22;100047.88;687574;28;90086;-64
2022/09/16 01:00:16;;;;;;;965.50;901.13;;;;;;;14.85;63.25;100051.63;689161;28;46090;-64
2022/09/16 01:00:38;;;;;;;973.05;908.38;;;;;;;14.85;63.45;100050.81;689051;28;46550;-64
2022/09/16 01:01:02;;;;;;;966.67;902.17;;;;;;;14.85;63.48;100045.38;689082;28;45238;-64
2022/09/16 01:01:23;;;;;;;950.63;886.80;;;;;;;14.84;63.66;100058.09;688342;28;69455;-64
2022/09/16 01:01:45;;;;;;;949.78;885.95;;;;;;;14.84;63.52;100047.22;689916;28;22417;-64
2022/09/16 01:02:09;;;;;;;960.90;896.67;;;;;;;14.81;63.53;100047.72;687697;28;66345;-64
2022/09/16 01:02:31;;;;;;;964.08;899.78;;;;;;;14.83;63.47;100059.19;687595;28;90704;-64
2022/09/16 01:02:52;;;;;;;967.88;903.45;;;;;;;14.82;63.62;100052.06;689058;28;46338;-64
2022/09/16 01:03:13;;;;;;;963.85;899.53;;;;;;;14.82;63.75;100045.81;689215;28;23427;-64
2022/09/16 01:03:45;;;;;;;962.10;897.90;;;;;;;14.81;63.75;100050.44;690077;28;23439;-64
2022/09/16 01:04:11;;;;;;;963.15;898.90;;;;;;;14.81;63.69;100053.16;686012;28;137688;-64
2022/09/16 01:04:37;;;;;;;961.38;897.17;;;;;;;14.81;63.81;100047.72;686041;28;137735;-64
2022/09/16 01:05:00;;;;;;;960.60;896.47;;;;;;;14.80;63.77;100047.94;685887;28;137822;-64
2022/09/16 01:05:24;;;;;;;953.78;889.78;;;;;;;14.82;63.56;100053.97;687462;28;67476;-64
2022/09/16 01:05:46;;;;;;;950.22;886.38;;;;;;;14.83;63.80;100052.88;687584;28;90663;-64
2022/09/16 01:06:09;;;;;;;952.63;888.70;;;;;;;14.78;63.90;100046.25;689144;28;45263;-64
2022/09/16 01:06:31;;;;;;;958.55;894.28;;;;;;;14.83;63.71;100051.03;688881;28;46344;-64
2022/09/16 01:06:53;;;;;;;961.13;896.75;;;;;;;14.83;64.14;100053.75;687236;28;69429;-65
2022/09/16 01:07:14;;;;;;;961.42;896.80;;;;;;;14.83;63.61;100055.59;688679;28;43856;-65
2022/09/16 01:07:40;;;;;;;965.17;900.72;;;;;;;14.82;63.80;100052.06;689974;28;22394;-64
2022/09/16 01:08:01;;;;;;;948.58;884.78;;;;;;;14.84;63.86;100049.13;685999;28;136332;-64
2022/09/16 01:08:23;;;;;;;957.88;893.78;;;;;;;14.84;63.87;100060.00;689901;28;22410;-64
2022/09/16 01:08:45;;;;;;;959.85;895.63;;;;;;;14.84;64.02;100060.81;688990;28;46319;-64
2022/09/16 01:09:07;;;;;;;963.53;899.13;;;;;;;14.83;63.81;100047.44;689113;28;45666;-64
2022/09/16 01:09:28;;;;;;;959.38;895.17;;;;;;;14.83;63.84;100059.19;689072;28;46399;-64
2022/09/16 01:09:54;;;;;;;954.15;890.15;;;;;;;14.83;63.90;100055.59;688661;28;60844;-64
2022/09/16 01:10:17;;;;;;;960.95;896.80;;;;;;;14.83;63.79;100055.59;689817;28;21532;-64
2022/09/16 01:10:40;;;;;;;948.10;884.45;;;;;;;14.84;63.73;100057.28;688451;28;67449;-64
2022/09/16 01:11:02;;;;;;;955.35;891.45;;;;;;;14.82;63.72;100054.78;688338;28;69387;-64
2022/09/16 01:11:23;;;;;;;960.22;896.13;;;;;;;14.83;63.90;100055.59;688964;28;45274;-64
2022/09/16 01:11:44;;;;;;;953.75;889.88;;;;;;;14.82;63.70;100049.34;689303;28;23416;-64
2022/09/16 01:12:05;;;;;;;957.95;893.88;;;;;;;14.82;63.70;100053.97;689205;28;21553;-64
2022/09/16 01:12:29;;;;;;;968.85;904.33;;;;;;;14.82;63.76;100052.06;689384;28;23543;-64
2022/09/16 01:12:53;;;;;;;960.22;896.03;;;;;;;14.76;63.92;100045.66;687574;28;92209;-64
2022/09/16 01:13:15;;;;;;;965.53;901.08;;;;;;;14.80;63.69;100050.66;687505;28;91947;-64
2022/09/16 01:13:37;;;;;;;959.72;895.47;;;;;;;14.80;63.93;100051.47;689064;28;47161;-64
2022/09/16 01:14:51;;;;;;;948.60;884.80;;;;;;;14.80;64.07;100058.81;688275;28;46436;-64
2022/09/16 01:14:53;;;;;;;957.40;893.20;;;;;;;14.77;64.07;100055.44;685289;28;137746;-64
2022/09/16 01:15:16;;;;;;;955.13;891.03;;;;;;;14.78;63.82;100056.31;685815;28;136974;-64
2022/09/16 01:15:43;;;;;;;953.20;889.15;;;;;;;14.77;63.97;100055.44;688116;28;69381;-64
2022/09/16 01:16:11;;;;;;;953.13;889.05;;;;;;;14.76;64.03;100051.09;686799;28;111091;-64
2022/09/16 01:16:35;;;;;;;948.45;884.45;;;;;;;14.77;63.97;100051.91;683217;28;136220;-64
2022/09/16 01:17:00;;;;;;;954.88;890.47;;;;;;;14.76;64.06;100055.66;683516;28;92193;-64
2022/09/16 01:17:29;;;;;;;947.28;883.05;;;;;;;14.75;64.45;100049.41;683879;28;116185;-64
2022/09/16 01:18:01;;;;;;;937.03;873.67;;;;;;;14.75;64.15;100054.84;683204;28;138425;-64
2022/09/16 01:18:26;;;;;;;955.13;891.05;;;;;;;14.74;64.11;100050.47;684276;28;138363;-64
2022/09/16 01:18:53;;;;;;;950.85;886.85;;;;;;;14.74;64.04;100050.47;685754;28;138033;-64
2022/09/16 01:19:24;;;;;;;945.70;882.05;;;;;;;14.74;64.27;100055.06;686030;28;136429;-64
2022/09/16 01:20:03;;;;;;;952.28;888.38;;;;;;;14.73;64.19;100056.13;682082;28;160054;-64
2022/09/16 01:20:52;;;;;;;950.83;886.97;;;;;;;14.73;64.14;100053.41;680337;28;137942;-64
2022/09/16 01:21:34;;;;;;;961.10;896.88;;;;;;;14.72;64.51;100058.00;681683;28;137478;-64
2022/09/16 01:22:02;;;;;;;955.35;891.15;;;;;;;14.72;64.49;100052.56;684992;28;137417;-64
2022/09/16 01:22:39;;;;;;;951.90;887.72;;;;;;;14.70;64.31;100054.69;682379;28;138923;-64
2022/09/16 01:23:40;;;;;;;960.70;896.40;;;;;;;14.69;64.58;100054.91;682735;28;137980;-64
2022/09/16 01:24:32;;;;;;;954.15;890.10;;;;;;;14.67;64.61;100057.84;677409;29;136137;-64
2022/09/16 01:24:56;;;;;;;963.92;899.63;;;;;;;14.66;64.85;100058.06;675377;28;160459;-64
2022/09/16 01:25:28;;;;;;;958.05;894.05;;;;;;;14.65;64.57;100057.22;687456;28;92220;-64
2022/09/16 01:26:03;;;;;;;952.63;888.72;;;;;;;14.65;65.04;100059.09;685765;28;135871;-64
2022/09/16 01:26:49;;;;;;;959.47;895.38;;;;;;;14.66;65.14;100058.88;685830;28;137691;-64
2022/09/16 01:27:48;;;;;;;961.50;897.08;;;;;;;14.67;64.72;100051.56;683933;28;157444;-64
2022/09/16 01:28:31;;;;;;;951.58;887.42;;;;;;;14.64;64.72;100052.00;676563;29;161681;-64
2022/09/16 01:29:19;;;;;;;951.10;887.10;;;;;;;14.61;64.94;100069.59;677616;29;137670;-64
2022/09/16 01:30:11;;;;;;;961.47;897.07;;;;;;;14.59;65.13;100058.06;684498;28;160679;-64
2022/09/16 01:30:59;;;;;;;966.80;902.22;;;;;;;14.56;65.02;100059.34;684175;28;137380;-65
2022/09/16 01:31:22;;;;;;;961.13;896.83;;;;;;;14.54;65.55;100058.72;685829;28;137456;-65
2022/09/16 01:31:47;;;;;;;962.60;898.17;;;;;;;14.52;65.59;100055.41;688168;28;69368;-65
2022/09/16 01:32:11;;;;;;;965.15;900.72;;;;;;;14.51;65.39;100058.34;685192;28;112106;-65
2022/09/16 01:32:39;;;;;;;960.78;896.58;;;;;;;14.51;65.40;100055.63;687764;28;84047;-64
2022/09/16 01:33:03;;;;;;;953.03;889.03;;;;;;;14.51;65.64;100058.34;685894;28;137891;-64
2022/09/16 01:33:31;;;;;;;961.05;896.80;;;;;;;14.50;65.70;100062.94;684050;28;116136;-64
2022/09/16 01:33:58;;;;;;;961.15;896.85;;;;;;;14.52;65.54;100058.13;685884;28;138599;-64
2022/09/16 01:34:26;;;;;;;947.50;883.67;;;;;;;14.51;65.88;100058.34;685699;28;136280;-64
2022/09/16 01:34:52;;;;;;;950.55;886.50;;;;;;;14.50;65.89;100062.94;685023;28;160601;-65
2022/09/16 01:35:21;;;;;;;952.75;888.75;;;;;;;14.49;65.94;100060.44;685900;28;136189;-64
2022/09/16 01:35:59;;;;;;;945.65;881.85;;;;;;;14.49;65.67;100057.72;685672;28;137441;-64
2022/09/16 01:36:31;;;;;;;958.25;893.92;;;;;;;14.48;65.78;100054.19;685725;28;136030;-64
2022/09/16 01:36:58;;;;;;;963.70;899.20;;;;;;;14.49;65.71;100060.44;684592;28;137721;-64
2022/09/16 01:37:27;;;;;;;965.80;900.83;;;;;;;14.48;65.58;100056.06;685554;28;138021;-64
2022/09/16 01:37:59;;;;;;;963.20;898.80;;;;;;;14.47;65.92;100055.22;683771;28;137847;-64
2022/09/16 01:38:27;;;;;;;960.95;896.30;;;;;;;14.48;65.76;100056.06;684947;28;137178;-64
2022/09/16 01:38:58;;;;;;;963.88;899.47;;;;;;;14.48;66.04;100048.75;685904;28;137901;-64
2022/09/16 01:39:28;;;;;;;959.43;895.13;;;;;;;14.49;66.20;100057.72;684937;28;158956;-65
2022/09/16 01:39:55;;;;;;;954.28;890.20;;;;;;;14.45;66.17;100053.78;683889;28;138625;-64
2022/09/16 01:40:23;;;;;;;960.70;896.28;;;;;;;14.50;65.76;100060.22;685748;28;138009;-64
2022/09/16 01:40:51;;;;;;;960.08;895.85;;;;;;;14.48;66.19;100059.63;682975;28;137858;-64
2022/09/16 01:41:17;;;;;;;956.60;892.35;;;;;;;14.47;65.89;100052.53;682961;28;138185;-64
2022/09/16 01:41:46;;;;;;;958.03;893.83;;;;;;;14.50;65.90;100057.53;680382;28;137428;-64
2022/09/16 01:42:17;;;;;;;958.88;894.47;;;;;;;14.48;66.06;100054.19;679010;28;156579;-64
2022/09/16 01:42:46;;;;;;;950.33;886.33;;;;;;;14.50;66.19;100062.09;679107;28;135892;-64
2022/09/16 01:43:15;;;;;;;956.45;892.03;;;;;;;14.50;66.25;100056.66;680115;28;138797;-64
2022/09/16 01:43:44;;;;;;;950.65;886.70;;;;;;;14.49;65.94;100063.16;682339;28;137862;-64
2022/09/16 01:44:09;;;;;;;945.08;881.35;;;;;;;14.48;66.19;100050.63;682999;28;137795;-64
2022/09/16 01:44:38;;;;;;;944.55;880.72;;;;;;;14.48;65.93;100048.75;684783;28;115572;-64
2022/09/16 01:45:03;;;;;;;954.90;890.75;;;;;;;14.47;65.91;100051.69;685119;28;136080;-64
2022/09/16 01:45:29;;;;;;;947.80;883.95;;;;;;;14.47;66.08;100060.66;687192;28;92281;-64
2022/09/16 01:45:54;;;;;;;952.20;887.95;;;;;;;14.47;66.31;100057.13;685065;28;136356;-64
2022/09/16 01:46:21;;;;;;;948.55;884.60;;;;;;;14.46;66.36;100060.88;686256;28;90713;-65
2022/09/16 01:46:44;;;;;;;955.67;891.55;;;;;;;14.43;66.30;100059.44;684168;28;160732;-64
2022/09/16 01:47:11;;;;;;;957.78;893.25;;;;;;;14.41;66.34;100053.41;687022;28;69398;-64
2022/09/16 01:47:36;;;;;;;945.00;881.25;;;;;;;14.40;66.03;100060.72;685077;28;160971;-64
2022/09/16 01:48:03;;;;;;;945.13;881.33;;;;;;;14.39;66.35;100053.63;685927;28;137313;-64
2022/09/16 01:48:28;;;;;;;959.33;895.05;;;;;;;14.37;66.41;100049.44;685906;28;138058;-64
2022/09/16 01:48:53;;;;;;;956.67;892.57;;;;;;;14.36;66.67;100050.50;685814;28;138098;-64
2022/09/16 01:49:20;;;;;;;960.53;896.22;;;;;;;14.34;66.66;100044.44;687494;28;87352;-65
2022/09/16 01:49:45;;;;;;;959.50;895.15;;;;;;;14.37;66.48;100052.16;686375;28;113868;-64
2022/09/16 01:50:14;;;;;;;960.30;895.90;;;;;;;14.33;66.60;100049.06;685052;28;79754;-64
2022/09/16 01:50:38;;;;;;;961.15;896.85;;;;;;;14.36;66.57;100050.50;683122;28;138211;-64
2022/09/16 01:51:02;;;;;;;963.30;898.85;;;;;;;14.36;66.71;100051.34;683718;28;113596;-64